Decoded Metar for RJGG (NAGOYA/CHUBU in JAPAN) (IATA:NGO) | Meteo·Mobile Aviation Weather
aviador You're here:

RJGG Decoded Metar

NAGOYA/CHUBU in JAPAN
Report Time2019-02-20 01:00:00
UTC Time2019-02-20 01:19:16
Flight Rules vfr VFR
Wind310° at 04 kt
W.Decomp.*RWY 36: 2.9 kt HW 2.7 kt LCW
W.Rank310° ranks 2
Current wind is below 310° avg. (14.3)
Visibility9999 m
Phenomena:N/A
Clouds:Few 015 Hf
Broken 040 Hf
Expected CloudBase > 1,200 ft AGL from Temp-Dew spread
Ceiling4,000 ft
Temp12°C (ISA -3)
Dew Point09°C (82% RH)
AAT10.3°C
QNH1015 hPa
Density Alt-249 ft
Elevation16 ft
Report Wrong Elevation
Raw Report
METAR RJGG 200100Z 31004KT 9999 FEW015 BKN040 12/09 Q1015 NOSIG=

Extra information for RJGG:More info

Metar Taf Metar & Taf Last 4 Metars F.Rules Stats Wind Profile Meteogram Temp Stats Airport Information Weather charts Add Link Nearby VenuesMetar ALERT Operation Metar Decoded Social comments